PrentiSS Brown — WDE6848 — position and weather

sailwx.info

Track history (hours):
 
Tides and Currents Weather Stations Pressure Air Temp Water Temp Dewpoint Dewpoint Depression Visibility Wind Speed Wind Dir Waves Ship Positions

PrentiSS Brown

Owner: Port City Marine Services Inc, Muskegon, MI. More information available from US FCC via Universal Licensing System and Coast Guard Vessel Documentation Center.

Last reported at 2016-Aug-24 11:31 UTC. Time now 2016-Aug-25 04:28 UTC.
Position N 45°11' W 085°41'.

; draft 5.3 m.

Type: Other ship. MMSI: 366922280.

Date/timePositionNaut miles runAvg speedWind from/ knotsBaromVisibWave heightAir tempDewpointWater temp
2016-Aug-24 11:31N 45°11' W 085°41'4 0.7
2016-Aug-24 06:33N 45°14' W 085°37'7 3.6
2016-Aug-24 04:34N 45°17' W 085°28'4 3.7
2016-Aug-24 03:34N 45°19' W 085°23'4 3.8
2016-Aug-24 02:33N 45°20' W 085°19'1 1.4
2016-Aug-24 01:34N 45°19' W 085°18'0 0.0
2016-Aug-24 00:34N 45°19' W 085°18'0 0.0
2016-Aug-23 23:33N 45°19' W 085°18'0 0.0
2016-Aug-23 22:33N 45°19' W 085°18'0 0.0
2016-Aug-23 21:34N 45°19' W 085°18'0 0.0
2016-Aug-23 20:33N 45°19' W 085°18'1 1.3
2016-Aug-23 19:33N 45°20' W 085°19'6 6.1
2016-Aug-23 18:33N 45°18' W 085°26'  
2016-Aug-18 20:33N 44°59' W 086°01'18 8.1
2016-Aug-18 18:21N 45°11' W 085°42'6 8.1
2016-Aug-18 17:34N 45°14' W 085°35'8 8.2
2016-Aug-18 16:33N 45°18' W 085°25'5 5.1
2016-Aug-18 15:33N 45°19' W 085°17'0 0.2
2016-Aug-18 14:33N 45°19' W 085°18'0 0.0
2016-Aug-18 13:33N 45°19' W 085°18'0 0.0
2016-Aug-18 12:33N 45°19' W 085°18'0 0.0
2016-Aug-18 11:33N 45°19' W 085°18'0 0.0
2016-Aug-18 10:34N 45°19' W 085°18'0 0.0
2016-Aug-18 09:34N 45°19' W 085°18'0 0.0
2016-Aug-18 08:34N 45°19' W 085°18'0 0.0
2016-Aug-18 07:33N 45°19' W 085°18'2 2.0
2016-Aug-18 06:34N 45°20' W 085°20'9 8.8
2016-Aug-18 05:34N 45°16' W 085°31'9 8.7
2016-Aug-18 04:34N 45°11' W 085°42'9 8.8
2016-Aug-18 03:33N 45°05' W 085°51'9 8.5
2016-Aug-18 02:32N 44°59' W 086°00'  
Track history (hours):
 
Tides and Currents Weather Stations Pressure Air Temp Water Temp Dewpoint Dewpoint Depression Visibility Wind Speed Wind Dir Waves Ship Positions

PrentiSS Brown

Owner: Port City Marine Services Inc, Muskegon, MI. More information available from US FCC via Universal Licensing System and Coast Guard Vessel Documentation Center.

Last reported at 2016-Aug-24 11:31 UTC. Time now 2016-Aug-25 04:28 UTC.
Position N 45°11' W 085°41'.

; draft 5.3 m.

Type: Other ship. MMSI: 366922280.

Date/timePositionNaut miles runAvg speedWind from/ knotsBaromVisibWave heightAir tempDewpointWater temp
2016-Aug-24 11:31N 45°11' W 085°41'4 0.7
2016-Aug-24 06:33N 45°14' W 085°37'7 3.6
2016-Aug-24 04:34N 45°17' W 085°28'4 3.7
2016-Aug-24 03:34N 45°19' W 085°23'4 3.8
2016-Aug-24 02:33N 45°20' W 085°19'1 1.4
2016-Aug-24 01:34N 45°19' W 085°18'0 0.0
2016-Aug-24 00:34N 45°19' W 085°18'0 0.0
2016-Aug-23 23:33N 45°19' W 085°18'0 0.0
2016-Aug-23 22:33N 45°19' W 085°18'0 0.0
2016-Aug-23 21:34N 45°19' W 085°18'0 0.0
2016-Aug-23 20:33N 45°19' W 085°18'1 1.3
2016-Aug-23 19:33N 45°20' W 085°19'6 6.1
2016-Aug-23 18:33N 45°18' W 085°26'  
2016-Aug-18 20:33N 44°59' W 086°01'18 8.1
2016-Aug-18 18:21N 45°11' W 085°42'6 8.1
2016-Aug-18 17:34N 45°14' W 085°35'8 8.2
2016-Aug-18 16:33N 45°18' W 085°25'5 5.1
2016-Aug-18 15:33N 45°19' W 085°17'0 0.2
2016-Aug-18 14:33N 45°19' W 085°18'0 0.0
2016-Aug-18 13:33N 45°19' W 085°18'0 0.0
2016-Aug-18 12:33N 45°19' W 085°18'0 0.0
2016-Aug-18 11:33N 45°19' W 085°18'0 0.0
2016-Aug-18 10:34N 45°19' W 085°18'0 0.0
2016-Aug-18 09:34N 45°19' W 085°18'0 0.0
2016-Aug-18 08:34N 45°19' W 085°18'0 0.0
2016-Aug-18 07:33N 45°19' W 085°18'2 2.0
2016-Aug-18 06:34N 45°20' W 085°20'9 8.8
2016-Aug-18 05:34N 45°16' W 085°31'9 8.7
2016-Aug-18 04:34N 45°11' W 085°42'9 8.8
2016-Aug-18 03:33N 45°05' W 085°51'9 8.5
2016-Aug-18 02:32N 44°59' W 086°00'  

Dump ship's entire track history